Time;durP1;ratioP1;P1;durP2;ratioP2;P2;SDS_P1;SDS_P2;PMS_P1;PMS_P2;Temp;Humidity;BMP_temperature;BMP_pressure;BME280_temperature;BME280_humidity;BME280_pressure;Samples;Min_cycle;Max_cycle;Signal;HPM_P1;HPM_P2
2023/08/22 00:01:28;;;;;;;9.13;8.23;;;27.90;38.00;;;;;;10229737;29;20246;-70
2023/08/22 00:06:31;;;;;;;8.97;8.17;;;27.90;38.70;;;;;;10227074;29;20229;-70
2023/08/22 00:11:34;;;;;;;9.03;8.30;;;27.90;38.00;;;;;;10228884;28;20246;-71
2023/08/22 00:16:39;;;;;;;9.17;8.33;;;27.90;38.00;;;;;;10228738;29;20241;-71
2023/08/22 00:21:42;;;;;;;9.27;8.47;;;27.90;38.60;;;;;;10228563;28;20283;-71
2023/08/22 00:26:45;;;;;;;8.93;8.23;;;27.90;38.40;;;;;;10240200;28;20238;-70
2023/08/22 00:31:50;;;;;;;10.40;9.50;;;27.90;38.30;;;;;;10275666;28;20232;-71
2023/08/22 00:36:53;;;;;;;9.07;8.27;;;27.80;39.00;;;;;;10273840;28;20233;-71
2023/08/22 00:41:56;;;;;;;9.27;8.47;;;27.80;38.40;;;;;;10277973;28;20302;-71
2023/08/22 00:47:01;;;;;;;9.30;8.60;;;27.70;38.40;;;;;;10275276;28;20238;-71
2023/08/22 00:52:05;;;;;;;9.67;8.67;;;27.60;39.30;;;;;;10271862;28;20270;-70
2023/08/22 00:57:09;;;;;;;9.63;8.83;;;27.60;39.00;;;;;;10274522;28;20232;-71
2023/08/22 01:02:14;;;;;;;10.03;9.07;;;27.50;39.00;;;;;;10274551;28;20323;-71
2023/08/22 01:07:23;;;;;;;9.30;8.53;;;27.50;39.70;;;;;;10280283;28;20239;-71
2023/08/22 01:12:32;;;;;;;8.37;7.77;;;27.40;40.20;;;;;;10270987;28;20355;-71
2023/08/22 01:17:38;;;;;;;9.03;8.37;;;27.30;40.10;;;;;;10274848;28;20272;-71
2023/08/22 01:22:43;;;;;;;9.23;8.57;;;27.20;40.40;;;;;;10275678;28;20243;-71
2023/08/22 01:27:55;;;;;;;9.10;8.40;;;27.10;40.30;;;;;;10282714;28;20678;-71
2023/08/22 01:33:05;;;;;;;10.63;8.80;;;27.00;41.00;;;;;;10279895;28;20228;-71
2023/08/22 01:38:11;;;;;;;8.57;7.87;;;26.90;41.10;;;;;;10267517;28;20703;-71
2023/08/22 01:43:14;;;;;;;8.70;8.10;;;26.90;41.00;;;;;;10270796;28;20239;-71
2023/08/22 01:48:18;;;;;;;8.97;8.27;;;26.90;40.20;;;;;;10273032;28;20641;-71
2023/08/22 01:53:22;;;;;;;8.10;7.40;;;26.90;40.20;;;;;;10273007;28;20269;-70
2023/08/22 01:58:25;;;;;;;8.20;7.57;;;26.90;40.60;;;;;;10278133;28;20716;-71
2023/08/22 02:03:29;;;;;;;9.07;8.37;;;27.00;40.40;;;;;;10272877;28;20306;-71
2023/08/22 02:08:34;;;;;;;9.27;8.50;;;27.00;40.40;;;;;;10271337;28;20240;-71
2023/08/22 02:13:37;;;;;;;9.40;8.60;;;27.00;40.70;;;;;;10265300;28;20266;-71
2023/08/22 02:18:40;;;;;;;8.87;8.27;;;26.90;40.20;;;;;;10271089;28;20335;-71
2023/08/22 02:23:45;;;;;;;8.97;8.17;;;26.80;40.40;;;;;;10276587;28;20231;-71
2023/08/22 02:28:48;;;;;;;9.50;8.70;;;26.70;41.10;;;;;;10272815;28;20232;-71
2023/08/22 02:33:52;;;;;;;9.90;9.00;;;26.60;40.70;;;;;;10277312;28;20260;-71
2023/08/22 02:38:57;;;;;;;9.37;8.57;;;26.60;40.70;;;;;;10271767;28;20242;-71
2023/08/22 02:44:00;;;;;;;9.80;9.00;;;26.60;41.20;;;;;;10275383;28;20231;-71
2023/08/22 02:49:03;;;;;;;9.77;8.97;;;26.60;40.90;;;;;;10267643;28;20599;-70
2023/08/22 02:54:08;;;;;;;9.37;8.67;;;26.50;41.00;;;;;;10270473;28;20274;-71
2023/08/22 02:59:11;;;;;;;9.37;8.57;;;26.60;41.80;;;;;;10274339;28;20228;-71
2023/08/22 03:04:14;;;;;;;8.97;8.17;;;26.60;40.90;;;;;;10273344;28;20242;-71
2023/08/22 03:09:19;;;;;;;8.70;8.00;;;26.50;40.80;;;;;;10270749;28;20262;-71
2023/08/22 03:14:22;;;;;;;8.60;7.90;;;26.50;41.20;;;;;;10274207;28;20249;-71
2023/08/22 03:19:25;;;;;;;9.60;8.70;;;26.50;40.90;;;;;;10266763;28;20805;-71
2023/08/22 03:24:30;;;;;;;9.30;8.50;;;26.40;41.00;;;;;;10268759;28;20236;-70
2023/08/22 03:29:33;;;;;;;8.63;7.83;;;26.30;41.80;;;;;;10263009;28;20231;-70
2023/08/22 03:34:36;;;;;;;8.37;7.67;;;26.30;41.40;;;;;;10279456;28;20235;-71
2023/08/22 03:39:41;;;;;;;9.40;8.60;;;26.20;41.70;;;;;;10261852;28;20289;-71
2023/08/22 03:44:45;;;;;;;8.83;8.13;;;26.20;41.70;;;;;;10267938;28;20231;-71
2023/08/22 03:49:49;;;;;;;8.70;8.00;;;26.10;41.60;;;;;;10273391;28;20228;-71
2023/08/22 03:54:53;;;;;;;9.70;8.90;;;26.00;41.60;;;;;;10265159;28;20223;-71
2023/08/22 03:59:59;;;;;;;9.47;8.70;;;26.00;41.60;;;;;;10266378;28;20238;-71
2023/08/22 04:05:02;;;;;;;8.57;7.97;;;25.90;41.50;;;;;;10267934;28;20227;-71
2023/08/22 04:10:08;;;;;;;8.47;7.87;;;25.90;41.50;;;;;;10266092;28;20624;-71
2023/08/22 04:15:12;;;;;;;10.07;9.27;;;25.90;42.00;;;;;;10271395;28;20766;-71
2023/08/22 04:20:16;;;;;;;8.93;8.13;;;25.90;41.50;;;;;;10261244;28;20331;-71
2023/08/22 04:25:20;;;;;;;9.47;8.67;;;25.80;41.40;;;;;;10273462;28;20627;-71
2023/08/22 04:30:27;;;;;;;8.70;8.10;;;25.80;42.00;;;;;;10269319;28;20240;-71
2023/08/22 04:35:31;;;;;;;9.17;8.37;;;25.90;41.50;;;;;;10272489;28;20264;-71
2023/08/22 04:40:36;;;;;;;9.83;9.03;;;25.90;41.60;;;;;;10274065;28;20237;-71
2023/08/22 04:45:39;;;;;;;10.73;9.83;;;25.90;42.40;;;;;;10260530;28;20250;-71
2023/08/22 04:50:42;;;;;;;9.87;9.17;;;25.80;42.10;;;;;;10270726;28;20298;-70
2023/08/22 04:55:47;;;;;;;9.83;8.93;;;25.70;42.10;;;;;;10261258;28;20228;-71
2023/08/22 05:00:50;;;;;;;9.70;8.90;;;25.60;42.70;;;;;;10272454;28;20241;-71
2023/08/22 05:05:53;;;;;;;9.53;8.83;;;25.60;42.40;;;;;;10274919;28;20680;-71
2023/08/22 05:10:58;;;;;;;9.27;8.40;;;25.60;42.50;;;;;;10270280;28;20254;-71
2023/08/22 05:16:01;;;;;;;10.07;9.03;;;25.70;43.00;;;;;;10272316;28;20340;-71
2023/08/22 05:21:05;;;;;;;10.03;9.33;;;25.70;42.80;;;;;;10278247;28;20232;-71
2023/08/22 05:26:10;;;;;;;9.87;9.07;;;25.70;43.40;;;;;;10272407;28;20220;-71
2023/08/22 05:31:20;;;;;;;10.17;9.37;;;25.70;43.30;;;;;;10276628;28;20274;-71
2023/08/22 05:36:23;;;;;;;11.00;10.10;;;25.60;44.00;;;;;;10257468;28;20238;-71
2023/08/22 05:41:27;;;;;;;10.90;10.10;;;25.60;43.10;;;;;;10273921;28;20239;-71
2023/08/22 05:46:31;;;;;;;10.97;10.07;;;25.60;43.80;;;;;;10269729;28;20322;-72
2023/08/22 05:51:34;;;;;;;10.97;9.97;;;25.60;43.60;;;;;;10276591;28;20240;-71
2023/08/22 05:56:39;;;;;;;10.60;9.77;;;25.60;43.30;;;;;;10265736;28;20266;-71
2023/08/22 06:01:42;;;;;;;11.57;10.47;;;25.60;44.10;;;;;;10264869;28;20228;-71
2023/08/22 06:06:45;;;;;;;11.50;10.60;;;25.60;43.70;;;;;;10266696;28;20724;-71
2023/08/22 06:11:50;;;;;;;11.63;10.73;;;25.60;44.10;;;;;;10265899;28;20238;-71
2023/08/22 06:16:53;;;;;;;13.10;11.90;;;25.60;44.90;;;;;;10266266;28;20255;-71
2023/08/22 06:21:56;;;;;;;12.77;11.53;;;25.60;44.60;;;;;;10266914;28;20238;-71
2023/08/22 06:27:01;;;;;;;12.83;11.70;;;25.60;44.80;;;;;;10275556;28;20228;-71
2023/08/22 06:32:04;;;;;;;12.90;11.87;;;25.80;45.50;;;;;;10263991;28;20700;-71
2023/08/22 06:37:07;;;;;;;12.80;11.80;;;25.90;45.40;;;;;;10261565;28;20234;-71
2023/08/22 06:42:12;;;;;;;12.93;11.63;;;26.00;45.30;;;;;;10272152;28;20236;-71
2023/08/22 06:47:15;;;;;;;13.83;12.63;;;26.10;45.90;;;;;;10273571;28;20242;-71
2023/08/22 06:52:19;;;;;;;14.17;12.97;;;26.20;45.80;;;;;;10269390;28;20246;-71
2023/08/22 06:57:24;;;;;;;14.20;13.00;;;26.40;45.80;;;;;;10264766;28;20720;-71
2023/08/22 07:02:27;;;;;;;14.33;13.13;;;26.50;46.00;;;;;;10265532;28;20607;-71
2023/08/22 07:07:30;;;;;;;14.50;13.27;;;26.60;45.30;;;;;;10265936;28;20232;-71
2023/08/22 07:12:35;;;;;;;14.13;12.93;;;26.70;45.40;;;;;;10270220;28;20247;-71
2023/08/22 07:17:38;;;;;;;14.27;12.80;;;26.90;45.80;;;;;;10271206;28;20724;-71
2023/08/22 07:22:46;;;;;;;14.53;13.27;;;27.00;45.20;;;;;;10272057;28;20310;-71
2023/08/22 07:27:51;;;;;;;13.60;12.60;;;27.10;45.00;;;;;;10267393;28;20669;-71
2023/08/22 07:32:54;;;;;;;13.87;12.77;;;27.20;45.20;;;;;;10273078;28;20316;-71
2023/08/22 07:37:57;;;;;;;14.33;13.13;;;27.40;45.10;;;;;;10262665;28;20235;-71
2023/08/22 07:43:02;;;;;;;14.40;13.27;;;27.50;45.30;;;;;;10263598;28;20228;-71
2023/08/22 07:48:06;;;;;;;14.07;12.97;;;27.70;45.50;;;;;;10263160;28;20339;-71
2023/08/22 07:53:10;;;;;;;12.57;11.60;;;27.90;45.20;;;;;;10258902;28;20240;-71
2023/08/22 07:58:15;;;;;;;13.27;12.17;;;28.10;44.80;;;;;;10264479;28;20287;-71
2023/08/22 08:03:18;;;;;;;13.13;12.03;;;28.30;44.00;;;;;;10264972;28;20267;-71
2023/08/22 08:08:21;;;;;;;12.40;11.40;;;28.50;43.70;;;;;;10261831;28;20257;-71
2023/08/22 08:13:26;;;;;;;11.67;10.73;;;28.60;43.30;;;;;;10251892;28;20240;-72
2023/08/22 08:18:29;;;;;;;12.47;11.27;;;28.80;43.40;;;;;;10261297;28;20335;-71
2023/08/22 08:23:33;;;;;;;11.10;10.30;;;29.00;43.30;;;;;;10262332;28;20240;-71
2023/08/22 08:28:38;;;;;;;12.00;10.90;;;29.20;42.90;;;;;;10267008;28;20231;-71
2023/08/22 08:33:41;;;;;;;11.80;10.77;;;29.40;42.70;;;;;;10262499;28;20323;-71
2023/08/22 08:38:45;;;;;;;11.77;10.87;;;29.70;42.40;;;;;;10265435;28;20230;-71
2023/08/22 08:43:50;;;;;;;11.57;10.57;;;29.90;41.80;;;;;;10263455;28;20586;-71
2023/08/22 08:48:54;;;;;;;11.63;10.73;;;30.10;41.30;;;;;;10278273;28;20234;-71
2023/08/22 08:53:58;;;;;;;10.67;9.77;;;30.30;41.10;;;;;;10272072;28;20823;-70
2023/08/22 08:59:03;;;;;;;10.60;9.67;;;30.50;40.20;;;;;;10276439;28;20767;-70
2023/08/22 09:04:07;;;;;;;10.60;9.70;;;30.70;39.50;;;;;;10274852;28;20314;-70
2023/08/22 09:09:11;;;;;;;10.43;9.57;;;30.90;39.90;;;;;;10267424;28;20263;-69
2023/08/22 09:14:19;;;;;;;9.60;8.70;;;31.20;40.20;;;;;;10266531;28;20247;-69
2023/08/22 09:19:23;;;;;;;10.53;9.63;;;31.40;38.90;;;;;;10260994;28;20246;-70
2023/08/22 09:24:28;;;;;;;10.10;9.30;;;31.60;39.40;;;;;;10262149;28;20336;-70
2023/08/22 09:29:34;;;;;;;10.60;9.60;;;31.90;38.90;;;;;;10270173;28;20298;-70
2023/08/22 09:34:37;;;;;;;9.57;8.83;;;32.20;37.70;;;;;;10278334;28;21195;-70
2023/08/22 09:39:55;;;;;;;9.73;8.97;;;32.30;37.50;;;;;;10274063;28;20270;-70
2023/08/22 09:44:59;;;;;;;10.00;9.13;;;32.50;37.40;;;;;;10271616;28;20229;-70
2023/08/22 09:50:06;;;;;;;9.57;8.67;;;32.80;36.70;;;;;;10276551;28;20257;-69
2023/08/22 09:55:11;;;;;;;9.13;8.27;;;33.00;36.40;;;;;;10278959;28;20442;-69
2023/08/22 10:00:17;;;;;;;8.90;8.20;;;33.30;34.80;;;;;;10271896;28;20238;-69
2023/08/22 10:05:20;;;;;;;8.80;8.00;;;33.50;34.80;;;;;;10277859;28;20245;-69
2023/08/22 10:10:24;;;;;;;8.13;7.43;;;33.60;34.80;;;;;;10273683;28;20744;-69
2023/08/22 10:15:30;;;;;;;7.97;7.33;;;33.80;34.10;;;;;;10262117;28;20675;-70
2023/08/22 10:20:35;;;;;;;8.30;7.50;;;33.80;33.20;;;;;;10269722;28;20236;-71
2023/08/22 10:25:47;;;;;;;8.20;7.50;;;34.00;33.20;;;;;;10264165;28;20264;-71
2023/08/22 10:31:05;;;;;;;8.10;7.40;;;34.10;32.10;;;;;;10259628;28;20245;-69
2023/08/22 10:36:16;;;;;;;7.60;7.10;;;34.30;32.80;;;;;;10263226;28;20230;-70
2023/08/22 10:41:22;;;;;;;8.17;7.37;;;34.40;32.60;;;;;;10263457;28;20240;-71
2023/08/22 10:47:00;;;;;;;7.60;7.00;;;34.60;30.70;;;;;;10261484;28;20239;-70
2023/08/22 10:52:06;;;;;;;7.40;6.70;;;34.70;30.90;;;;;;10268020;28;20250;-70
2023/08/22 10:57:19;;;;;;;7.53;6.83;;;34.80;30.00;;;;;;10268403;28;20232;-70
2023/08/22 11:02:25;;;;;;;7.77;7.10;;;34.90;29.80;;;;;;10253397;28;20239;-70
2023/08/22 11:07:29;;;;;;;8.00;7.30;;;34.90;29.70;;;;;;10258780;28;20251;-69
2023/08/22 11:12:32;;;;;;;7.90;7.10;;;35.00;29.60;;;;;;10259210;28;20663;-70
2023/08/22 11:17:40;;;;;;;7.87;7.17;;;35.00;29.70;;;;;;10261509;28;20326;-69
2023/08/22 11:22:44;;;;;;;7.50;6.80;;;35.10;29.20;;;;;;10261115;28;20660;-70
2023/08/22 11:27:49;;;;;;;7.83;7.13;;;35.20;29.00;;;;;;10260381;28;20625;-70
2023/08/22 11:32:53;;;;;;;7.50;6.90;;;35.20;29.60;;;;;;10265712;28;20279;-70
2023/08/22 11:37:57;;;;;;;7.40;6.80;;;35.30;28.80;;;;;;10267256;28;20282;-71
2023/08/22 11:43:01;;;;;;;7.50;6.60;;;35.30;29.00;;;;;;10254662;28;20749;-71
2023/08/22 11:48:11;;;;;;;7.03;6.33;;;35.40;28.30;;;;;;10263582;28;20262;-70
2023/08/22 11:53:15;;;;;;;7.93;6.37;;;35.40;27.20;;;;;;10259757;28;20326;-72
2023/08/22 11:58:19;;;;;;;7.53;6.93;;;35.40;28.10;;;;;;10259469;28;20285;-71
2023/08/22 12:03:23;;;;;;;7.40;6.70;;;35.50;27.80;;;;;;10260519;28;20250;-72
2023/08/22 12:08:27;;;;;;;7.23;6.50;;;35.50;26.70;;;;;;10248233;28;20898;-72
2023/08/22 12:13:30;;;;;;;6.87;6.20;;;35.40;27.90;;;;;;10260258;28;20227;-72
2023/08/22 12:18:34;;;;;;;7.80;7.07;;;35.50;27.80;;;;;;10253954;28;20235;-72
2023/08/22 12:23:38;;;;;;;6.63;6.17;;;35.50;26.80;;;;;;10258658;28;20325;-72
2023/08/22 12:28:41;;;;;;;8.63;6.60;;;35.50;27.30;;;;;;10262196;28;20232;-72
2023/08/22 12:33:46;;;;;;;7.60;6.80;;;35.50;27.00;;;;;;10262195;28;20225;-72
2023/08/22 12:38:49;;;;;;;6.53;6.03;;;35.50;26.20;;;;;;10265070;28;20231;-73
2023/08/22 12:43:52;;;;;;;7.23;6.57;;;35.50;26.60;;;;;;10278433;28;20329;-72
2023/08/22 12:48:57;;;;;;;7.17;6.67;;;35.50;26.60;;;;;;10262904;28;20242;-71
2023/08/22 12:54:00;;;;;;;7.47;6.87;;;35.40;26.10;;;;;;10274436;28;20227;-72
2023/08/22 12:59:04;;;;;;;6.57;6.07;;;35.40;26.30;;;;;;10264915;28;20234;-71
2023/08/22 13:04:13;;;;;;;6.87;6.27;;;35.40;26.30;;;;;;10267306;28;20665;-71
2023/08/22 13:09:16;;;;;;;7.10;6.40;;;35.50;25.50;;;;;;10267645;28;20229;-71
2023/08/22 13:14:20;;;;;;;6.97;6.37;;;35.50;26.20;;;;;;10273029;28;20313;-71
2023/08/22 13:19:24;;;;;;;6.87;6.30;;;35.40;25.70;;;;;;10261830;28;20242;-71
2023/08/22 13:24:27;;;;;;;6.53;5.93;;;35.40;25.40;;;;;;10268362;28;20259;-72
2023/08/22 13:29:31;;;;;;;6.33;5.83;;;35.40;25.70;;;;;;10264812;28;21189;-71
2023/08/22 13:34:35;;;;;;;7.00;6.17;;;35.40;25.60;;;;;;10267918;28;20242;-71
2023/08/22 13:39:38;;;;;;;6.97;6.10;;;35.40;25.30;;;;;;10259525;28;20239;-71
2023/08/22 13:44:43;;;;;;;6.10;5.60;;;35.40;25.50;;;;;;10259914;28;20629;-72
2023/08/22 13:49:48;;;;;;;6.13;5.53;;;35.40;25.00;;;;;;10261710;28;20792;-71
2023/08/22 13:54:52;;;;;;;5.50;5.10;;;35.50;24.70;;;;;;10262198;28;20624;-72
2023/08/22 13:59:55;;;;;;;5.30;5.00;;;35.50;24.70;;;;;;10258901;28;20233;-71
2023/08/22 14:04:59;;;;;;;5.63;5.13;;;35.60;25.00;;;;;;10265322;28;20265;-71
2023/08/22 14:10:03;;;;;;;5.10;4.80;;;35.70;24.10;;;;;;10272794;28;20242;-71
2023/08/22 14:15:07;;;;;;;5.97;5.47;;;35.70;24.10;;;;;;10262151;28;20667;-71
2023/08/22 14:20:12;;;;;;;5.37;4.90;;;35.60;24.00;;;;;;10267774;28;20312;-71
2023/08/22 14:25:15;;;;;;;5.67;4.73;;;35.60;23.40;;;;;;10266814;28;20238;-71
2023/08/22 14:30:18;;;;;;;5.17;4.77;;;35.60;24.00;;;;;;10260513;28;20323;-72
2023/08/22 14:35:23;;;;;;;5.43;4.93;;;35.60;24.00;;;;;;10264730;28;20343;-71
2023/08/22 14:40:26;;;;;;;5.87;5.00;;;35.60;24.00;;;;;;10257337;28;20253;-71
2023/08/22 14:45:30;;;;;;;6.67;5.23;;;35.60;24.00;;;;;;10267871;28;20296;-71
2023/08/22 14:50:40;;;;;;;4.70;4.40;;;35.60;24.00;;;;;;10258657;28;20319;-71
2023/08/22 14:55:56;;;;;;;5.00;4.70;;;35.60;22.70;;;;;;10264149;28;20229;-71
2023/08/22 15:01:00;;;;;;;4.90;4.50;;;35.60;23.10;;;;;;10264887;28;20250;-71
2023/08/22 15:06:04;;;;;;;5.07;4.67;;;35.60;24.00;;;;;;10266846;28;20244;-71
2023/08/22 15:11:08;;;;;;;4.70;4.30;;;35.70;23.40;;;;;;10259243;28;20316;-72
2023/08/22 15:16:11;;;;;;;6.33;4.63;;;35.70;23.10;;;;;;10263463;28;20223;-71
2023/08/22 15:21:16;;;;;;;4.73;4.40;;;35.60;23.60;;;;;;10262330;28;20258;-71
2023/08/22 15:26:20;;;;;;;4.50;4.20;;;35.60;23.10;;;;;;10263479;28;20327;-71
2023/08/22 15:31:24;;;;;;;4.57;4.27;;;35.60;23.40;;;;;;10265924;28;20240;-71
2023/08/22 15:36:29;;;;;;;4.77;4.43;;;35.60;22.60;;;;;;10264070;28;20237;-71
2023/08/22 15:41:33;;;;;;;4.03;3.73;;;35.50;22.20;;;;;;10259874;28;20232;-71
2023/08/22 15:46:37;;;;;;;4.20;3.87;;;35.50;22.30;;;;;;10274497;28;20260;-71
2023/08/22 15:51:42;;;;;;;4.33;3.93;;;35.50;22.30;;;;;;10265521;28;20238;-71
2023/08/22 15:56:45;;;;;;;3.80;3.60;;;35.40;21.30;;;;;;10260046;28;20238;-70
2023/08/22 16:01:49;;;;;;;3.57;3.33;;;35.30;21.90;;;;;;10256079;28;20249;-71
2023/08/22 16:06:53;;;;;;;4.77;3.67;;;35.30;22.20;;;;;;10266304;28;20614;-71
2023/08/22 16:11:57;;;;;;;4.37;3.97;;;35.30;21.80;;;;;;10262561;28;20735;-71
2023/08/22 16:17:00;;;;;;;3.97;3.70;;;35.30;22.20;;;;;;10264015;28;20228;-71
2023/08/22 16:22:05;;;;;;;3.90;3.60;;;35.30;22.30;;;;;;10260583;28;20235;-71
2023/08/22 16:27:08;;;;;;;3.80;3.50;;;35.30;22.00;;;;;;10259606;28;20228;-71
2023/08/22 16:32:15;;;;;;;3.50;3.30;;;35.20;22.20;;;;;;10250022;28;20260;-71
2023/08/22 16:37:20;;;;;;;3.80;3.50;;;35.20;22.40;;;;;;10255206;28;20670;-70
2023/08/22 16:42:23;;;;;;;3.93;3.53;;;35.20;22.40;;;;;;10253665;28;20239;-70
2023/08/22 16:47:26;;;;;;;4.20;3.77;;;35.20;22.60;;;;;;10256365;28;20244;-70
2023/08/22 16:52:30;;;;;;;3.70;3.40;;;35.20;22.50;;;;;;10256859;28;20240;-70
2023/08/22 16:57:34;;;;;;;3.93;3.63;;;35.20;22.40;;;;;;10257399;28;20344;-70
2023/08/22 17:02:38;;;;;;;3.40;3.20;;;35.20;22.60;;;;;;10266158;28;20235;-70
2023/08/22 17:07:42;;;;;;;3.60;3.40;;;35.20;23.40;;;;;;10258321;28;22818;-71
2023/08/22 17:12:46;;;;;;;3.60;3.30;;;35.20;22.50;;;;;;10257709;28;20247;-70
2023/08/22 17:17:49;;;;;;;4.77;3.40;;;35.20;22.60;;;;;;10263731;28;20233;-70
2023/08/22 17:22:56;;;;;;;3.50;3.30;;;35.10;22.80;;;;;;10261978;28;20330;-70
2023/08/22 17:28:00;;;;;;;3.50;3.20;;;35.10;23.10;;;;;;10259573;28;20586;-70
2023/08/22 17:33:04;;;;;;;3.23;3.03;;;35.10;23.10;;;;;;10257082;28;20246;-70
2023/08/22 17:38:09;;;;;;;3.50;3.00;;;35.00;23.30;;;;;;10258671;28;20224;-70
2023/08/22 17:43:12;;;;;;;3.60;3.30;;;35.00;23.40;;;;;;10263207;28;20239;-70
2023/08/22 17:48:15;;;;;;;3.70;3.50;;;34.80;23.50;;;;;;10261589;28;20243;-70
2023/08/22 17:53:21;;;;;;;3.90;3.60;;;34.80;23.60;;;;;;10263082;28;20328;-70
2023/08/22 17:58:25;;;;;;;3.90;3.20;;;34.60;23.50;;;;;;10262022;28;20242;-70
2023/08/22 18:03:28;;;;;;;3.80;3.50;;;34.50;23.40;;;;;;10256233;28;20319;-70
2023/08/22 18:08:33;;;;;;;6.00;3.70;;;34.50;23.90;;;;;;10262755;28;20337;-70
2023/08/22 18:13:36;;;;;;;4.80;3.53;;;34.40;24.30;;;;;;10268109;28;20863;-71
2023/08/22 18:18:40;;;;;;;3.50;3.30;;;34.30;24.30;;;;;;10273171;28;20240;-72
2023/08/22 18:23:45;;;;;;;3.50;3.30;;;34.20;24.30;;;;;;10267760;28;20233;-72
2023/08/22 18:28:48;;;;;;;3.47;3.17;;;34.00;24.40;;;;;;10262952;28;20239;-73
2023/08/22 18:33:54;;;;;;;3.23;3.00;;;33.90;24.10;;;;;;10260066;28;20269;-73
2023/08/22 18:38:59;;;;;;;3.40;3.20;;;33.80;24.10;;;;;;10267163;28;20227;-73
2023/08/22 18:44:05;;;;;;;3.40;3.10;;;33.70;24.30;;;;;;10265943;28;20322;-73
2023/08/22 18:49:08;;;;;;;3.80;3.30;;;33.50;24.50;;;;;;10270574;28;20326;-73
2023/08/22 18:54:12;;;;;;;3.30;3.10;;;33.40;24.60;;;;;;10263704;28;20701;-73
2023/08/22 18:59:16;;;;;;;3.33;3.13;;;33.30;25.10;;;;;;10265309;28;20315;-73
2023/08/22 19:04:19;;;;;;;3.40;3.10;;;33.20;25.10;;;;;;10265783;28;20244;-73
2023/08/22 19:09:24;;;;;;;3.13;2.93;;;33.10;25.30;;;;;;10270288;28;20243;-73
2023/08/22 19:14:27;;;;;;;3.93;3.53;;;33.00;25.80;;;;;;10264745;28;20298;-73
2023/08/22 19:19:30;;;;;;;3.57;3.37;;;32.90;25.80;;;;;;10259329;28;20756;-72
2023/08/22 19:24:35;;;;;;;3.60;3.30;;;32.80;25.80;;;;;;10256732;28;20244;-73
2023/08/22 19:29:38;;;;;;;4.47;3.63;;;32.70;26.60;;;;;;10250958;28;20320;-72
2023/08/22 19:34:42;;;;;;;4.30;3.90;;;32.50;26.30;;;;;;10266775;28;20314;-73
2023/08/22 19:39:49;;;;;;;4.10;3.73;;;32.40;26.60;;;;;;10255249;28;21017;-72
2023/08/22 19:44:54;;;;;;;4.27;3.90;;;32.10;27.30;;;;;;10254211;28;20238;-72
2023/08/22 19:49:57;;;;;;;3.87;3.63;;;31.90;27.20;;;;;;10257935;28;20391;-72
2023/08/22 19:55:04;;;;;;;4.00;3.70;;;31.70;27.20;;;;;;10276490;28;20239;-72
2023/08/22 20:00:09;;;;;;;3.93;3.57;;;31.60;27.80;;;;;;10259365;28;20754;-72
2023/08/22 20:05:16;;;;;;;4.27;3.87;;;31.60;27.90;;;;;;10274608;28;20979;-72
2023/08/22 20:10:21;;;;;;;5.50;4.97;;;31.60;27.90;;;;;;10248387;28;20244;-73
2023/08/22 20:15:25;;;;;;;12.50;11.30;;;31.50;28.10;;;;;;10252310;28;20235;-72
2023/08/22 20:20:28;;;;;;;5.97;5.47;;;31.50;28.60;;;;;;10252904;28;20347;-73
2023/08/22 20:25:34;;;;;;;4.43;4.13;;;31.30;28.20;;;;;;10269559;28;20306;-72
2023/08/22 20:30:40;;;;;;;4.07;3.67;;;31.20;28.50;;;;;;10256663;28;20245;-73
2023/08/22 20:35:49;;;;;;;4.33;3.17;;;31.20;28.70;;;;;;10259704;28;20243;-71
2023/08/22 20:40:54;;;;;;;3.53;3.23;;;31.10;29.10;;;;;;10259060;28;20307;-73
2023/08/22 20:46:00;;;;;;;3.83;3.53;;;31.00;29.50;;;;;;10265944;28;20645;-71
2023/08/22 20:51:03;;;;;;;3.90;3.60;;;31.00;29.40;;;;;;10284643;28;20255;-71
2023/08/22 20:56:08;;;;;;;4.50;4.10;;;30.80;29.00;;;;;;10287486;28;20238;-71
2023/08/22 21:01:11;;;;;;;3.90;3.60;;;30.70;29.40;;;;;;10263356;28;20318;-70
2023/08/22 21:06:14;;;;;;;4.03;3.70;;;30.50;29.20;;;;;;10262986;28;20847;-71
2023/08/22 21:11:19;;;;;;;4.10;3.70;;;30.30;29.70;;;;;;10279057;28;20241;-71
2023/08/22 21:16:22;;;;;;;4.17;3.87;;;30.10;30.00;;;;;;10268116;28;20595;-71
2023/08/22 21:21:25;;;;;;;4.23;3.90;;;30.00;30.00;;;;;;10278907;28;20310;-71
2023/08/22 21:26:30;;;;;;;5.27;4.30;;;29.90;30.10;;;;;;10284644;28;20331;-72
2023/08/22 21:31:33;;;;;;;4.30;3.93;;;29.80;31.40;;;;;;10285836;28;20318;-71
2023/08/22 21:36:36;;;;;;;4.57;4.13;;;29.70;30.60;;;;;;10265803;28;20268;-71
2023/08/22 21:41:41;;;;;;;5.57;4.50;;;29.60;31.20;;;;;;10279358;28;20236;-71
2023/08/22 21:46:44;;;;;;;4.43;4.03;;;29.50;31.20;;;;;;10286733;28;20291;-71
2023/08/22 21:51:47;;;;;;;4.47;4.17;;;29.40;31.10;;;;;;10283410;28;20246;-71
2023/08/22 21:56:52;;;;;;;5.30;4.60;;;29.20;31.10;;;;;;10247148;29;20228;-71
2023/08/22 22:01:55;;;;;;;4.50;4.10;;;29.00;32.20;;;;;;10280564;28;20323;-70
2023/08/22 22:06:58;;;;;;;4.23;3.90;;;28.70;31.80;;;;;;10286503;28;20235;-71
2023/08/22 22:12:03;;;;;;;4.23;3.83;;;28.50;32.30;;;;;;10249085;28;20232;-71
2023/08/22 22:17:06;;;;;;;4.70;4.23;;;28.40;33.20;;;;;;10246144;28;20229;-71
2023/08/22 22:22:09;;;;;;;4.67;4.10;;;28.40;33.10;;;;;;10262236;28;20240;-72
2023/08/22 22:27:14;;;;;;;4.57;4.13;;;28.40;33.00;;;;;;10246079;29;20240;-71
2023/08/22 22:32:17;;;;;;;4.80;4.40;;;28.40;33.70;;;;;;10260663;28;20282;-71
2023/08/22 22:37:21;;;;;;;4.10;3.80;;;28.30;33.20;;;;;;10285900;28;20751;-71
2023/08/22 22:42:26;;;;;;;4.37;3.97;;;28.30;33.40;;;;;;10269031;28;20236;-71
2023/08/22 22:47:29;;;;;;;5.03;4.30;;;28.20;34.10;;;;;;10284954;28;20250;-71
2023/08/22 22:52:32;;;;;;;4.47;4.00;;;28.20;33.60;;;;;;10284941;28;20711;-71
2023/08/22 22:57:37;;;;;;;5.73;4.30;;;28.10;33.80;;;;;;10284016;28;20665;-71
2023/08/22 23:02:40;;;;;;;4.87;4.47;;;27.90;34.60;;;;;;10284280;28;20255;-71
2023/08/22 23:07:43;;;;;;;4.60;4.20;;;27.70;34.30;;;;;;10284170;28;20234;-71
2023/08/22 23:12:48;;;;;;;4.37;4.00;;;27.60;34.90;;;;;;10284140;28;20240;-71
2023/08/22 23:17:52;;;;;;;4.70;4.00;;;27.50;35.40;;;;;;10284694;28;20806;-71
2023/08/22 23:22:55;;;;;;;4.80;4.40;;;27.40;35.30;;;;;;10283746;28;20874;-71
2023/08/22 23:27:59;;;;;;;4.70;4.00;;;27.40;35.40;;;;;;10283523;28;20586;-71
2023/08/22 23:33:03;;;;;;;5.20;4.70;;;27.40;36.10;;;;;;10283393;28;20239;-71
2023/08/22 23:38:06;;;;;;;4.60;4.00;;;27.40;35.70;;;;;;10245306;28;20232;-70
2023/08/22 23:43:11;;;;;;;5.63;5.20;;;27.40;35.80;;;;;;10265831;28;20319;-71
2023/08/22 23:48:14;;;;;;;5.00;4.40;;;27.50;36.60;;;;;;10283170;28;20317;-71
2023/08/22 23:53:18;;;;;;;4.87;4.50;;;27.50;35.90;;;;;;10282446;28;20267;-71
2023/08/22 23:58:22;;;;;;;5.10;4.70;;;27.50;35.90;;;;;;10281827;28;20235;-71
